sensor_id;sensor_type;location;lat;lon;timestamp;temperature;humidity
23435;DHT22;11890;45.380;11.028;2022-11-23T00:00:42;10.70;99.90
23435;DHT22;11890;45.380;11.028;2022-11-23T00:03:14;10.80;99.90
23435;DHT22;11890;45.380;11.028;2022-11-23T00:05:42;10.80;99.90
23435;DHT22;11890;45.380;11.028;2022-11-23T00:08:09;10.70;99.90
23435;DHT22;11890;45.380;11.028;2022-11-23T00:10:36;10.70;99.90
23435;DHT22;11890;45.380;11.028;2022-11-23T00:13:04;10.70;99.90
23435;DHT22;11890;45.380;11.028;2022-11-23T00:15:31;10.60;99.90
23435;DHT22;11890;45.380;11.028;2022-11-23T00:17:58;10.70;99.90
23435;DHT22;11890;45.380;11.028;2022-11-23T00:20:28;10.70;99.90
23435;DHT22;11890;45.380;11.028;2022-11-23T00:22:56;10.70;99.90
23435;DHT22;11890;45.380;11.028;2022-11-23T00:25:23;10.70;99.90
23435;DHT22;11890;45.380;11.028;2022-11-23T00:27:50;10.70;99.90
23435;DHT22;11890;45.380;11.028;2022-11-23T00:30:18;10.70;99.90
23435;DHT22;11890;45.380;11.028;2022-11-23T00:32:45;10.70;99.90
23435;DHT22;11890;45.380;11.028;2022-11-23T00:35:12;10.70;99.90
23435;DHT22;11890;45.380;11.028;2022-11-23T00:37:40;10.60;99.90
23435;DHT22;11890;45.380;11.028;2022-11-23T00:40:08;10.70;99.90
23435;DHT22;11890;45.380;11.028;2022-11-23T00:42:35;10.70;99.90
23435;DHT22;11890;45.380;11.028;2022-11-23T00:45:04;10.70;99.90
23435;DHT22;11890;45.380;11.028;2022-11-23T00:47:32;10.70;99.90
23435;DHT22;11890;45.380;11.028;2022-11-23T00:49:59;10.70;99.90
23435;DHT22;11890;45.380;11.028;2022-11-23T00:52:27;10.70;99.90
23435;DHT22;11890;45.380;11.028;2022-11-23T00:54:54;10.60;99.90
23435;DHT22;11890;45.380;11.028;2022-11-23T00:57:21;10.60;99.90
23435;DHT22;11890;45.380;11.028;2022-11-23T00:59:49;10.70;99.90
23435;DHT22;11890;45.380;11.028;2022-11-23T01:02:16;10.70;99.90
23435;DHT22;11890;45.380;11.028;2022-11-23T01:04:43;10.70;99.90
23435;DHT22;11890;45.380;11.028;2022-11-23T01:07:11;10.70;99.90
23435;DHT22;11890;45.380;11.028;2022-11-23T01:09:39;10.60;99.90
23435;DHT22;11890;45.380;11.028;2022-11-23T01:12:06;10.60;99.90
23435;DHT22;11890;45.380;11.028;2022-11-23T01:14:34;10.60;99.90
23435;DHT22;11890;45.380;11.028;2022-11-23T01:17:04;10.60;99.90
23435;DHT22;11890;45.380;11.028;2022-11-23T01:19:34;10.60;99.90
23435;DHT22;11890;45.380;11.028;2022-11-23T01:22:01;10.60;99.90
23435;DHT22;11890;45.380;11.028;2022-11-23T01:24:28;10.60;99.90
23435;DHT22;11890;45.380;11.028;2022-11-23T01:26:56;10.60;99.90
23435;DHT22;11890;45.380;11.028;2022-11-23T01:29:25;10.50;99.90
23435;DHT22;11890;45.380;11.028;2022-11-23T01:31:53;10.60;99.90
23435;DHT22;11890;45.380;11.028;2022-11-23T01:34:20;10.60;99.90
23435;DHT22;11890;45.380;11.028;2022-11-23T01:36:49;10.50;99.90
23435;DHT22;11890;45.380;11.028;2022-11-23T01:39:16;10.50;99.90
23435;DHT22;11890;45.380;11.028;2022-11-23T01:41:44;10.50;99.90
23435;DHT22;11890;45.380;11.028;2022-11-23T01:44:30;10.50;99.90
23435;DHT22;11890;45.380;11.028;2022-11-23T01:47:03;10.40;99.90
23435;DHT22;11890;45.380;11.028;2022-11-23T01:49:42;10.50;99.90
23435;DHT22;11890;45.380;11.028;2022-11-23T01:52:15;10.50;99.90
23435;DHT22;11890;45.380;11.028;2022-11-23T01:54:47;10.50;99.90
23435;DHT22;11890;45.380;11.028;2022-11-23T01:57:22;10.40;99.90
23435;DHT22;11890;45.380;11.028;2022-11-23T01:59:52;10.40;99.90
23435;DHT22;11890;45.380;11.028;2022-11-23T02:02:21;10.40;99.90
23435;DHT22;11890;45.380;11.028;2022-11-23T02:04:52;10.40;99.90
23435;DHT22;11890;45.380;11.028;2022-11-23T02:07:22;10.30;99.90
23435;DHT22;11890;45.380;11.028;2022-11-23T02:09:51;10.30;99.90
23435;DHT22;11890;45.380;11.028;2022-11-23T02:12:18;10.30;99.90
23435;DHT22;11890;45.380;11.028;2022-11-23T02:14:46;10.30;99.90
23435;DHT22;11890;45.380;11.028;2022-11-23T02:17:13;10.20;99.90
23435;DHT22;11890;45.380;11.028;2022-11-23T02:28:18;10.10;99.90
23435;DHT22;11890;45.380;11.028;2022-11-23T02:30:48;10.10;99.90
23435;DHT22;11890;45.380;11.028;2022-11-23T02:33:16;10.00;99.90
23435;DHT22;11890;45.380;11.028;2022-11-23T02:35:51;10.00;99.90
23435;DHT22;11890;45.380;11.028;2022-11-23T02:38:23;10.00;99.90
23435;DHT22;11890;45.380;11.028;2022-11-23T02:40:52;9.90;99.90
23435;DHT22;11890;45.380;11.028;2022-11-23T02:43:21;9.90;99.90
23435;DHT22;11890;45.380;11.028;2022-11-23T02:45:52;9.90;99.90
23435;DHT22;11890;45.380;11.028;2022-11-23T02:48:24;9.80;99.90
23435;DHT22;11890;45.380;11.028;2022-11-23T02:50:52;9.80;99.90
23435;DHT22;11890;45.380;11.028;2022-11-23T02:53:19;9.70;99.90
23435;DHT22;11890;45.380;11.028;2022-11-23T02:55:46;9.70;99.90
23435;DHT22;11890;45.380;11.028;2022-11-23T02:58:16;9.70;99.90
23435;DHT22;11890;45.380;11.028;2022-11-23T03:00:45;9.70;99.90
23435;DHT22;11890;45.380;11.028;2022-11-23T03:03:16;9.70;99.90
23435;DHT22;11890;45.380;11.028;2022-11-23T03:05:43;9.60;99.90
23435;DHT22;11890;45.380;11.028;2022-11-23T03:08:11;9.60;99.90
23435;DHT22;11890;45.380;11.028;2022-11-23T03:10:39;9.60;99.90
23435;DHT22;11890;45.380;11.028;2022-11-23T03:13:07;9.60;99.90
23435;DHT22;11890;45.380;11.028;2022-11-23T03:15:36;9.60;99.90
23435;DHT22;11890;45.380;11.028;2022-11-23T03:18:05;9.60;99.90
23435;DHT22;11890;45.380;11.028;2022-11-23T03:20:33;9.60;99.90
23435;DHT22;11890;45.380;11.028;2022-11-23T03:23:00;9.50;99.90
23435;DHT22;11890;45.380;11.028;2022-11-23T03:25:28;9.50;99.90
23435;DHT22;11890;45.380;11.028;2022-11-23T03:27:57;9.50;99.90
23435;DHT22;11890;45.380;11.028;2022-11-23T03:30:26;9.50;99.90
23435;DHT22;11890;45.380;11.028;2022-11-23T03:32:53;9.40;99.90
23435;DHT22;11890;45.380;11.028;2022-11-23T03:35:22;9.40;99.90
23435;DHT22;11890;45.380;11.028;2022-11-23T03:38:21;9.40;99.90
23435;DHT22;11890;45.380;11.028;2022-11-23T03:40:50;9.40;99.90
23435;DHT22;11890;45.380;11.028;2022-11-23T03:43:23;9.40;99.90
23435;DHT22;11890;45.380;11.028;2022-11-23T03:45:51;9.40;99.90
23435;DHT22;11890;45.380;11.028;2022-11-23T03:48:18;9.30;99.90
23435;DHT22;11890;45.380;11.028;2022-11-23T03:50:45;9.20;99.90
23435;DHT22;11890;45.380;11.028;2022-11-23T03:53:13;9.20;99.90
23435;DHT22;11890;45.380;11.028;2022-11-23T03:55:40;9.20;99.90
23435;DHT22;11890;45.380;11.028;2022-11-23T03:58:08;9.20;99.90
23435;DHT22;11890;45.380;11.028;2022-11-23T04:00:35;9.20;99.90
23435;DHT22;11890;45.380;11.028;2022-11-23T04:03:03;9.10;99.90
23435;DHT22;11890;45.380;11.028;2022-11-23T04:06:01;9.10;99.90
23435;DHT22;11890;45.380;11.028;2022-11-23T04:08:47;9.10;99.90
23435;DHT22;11890;45.380;11.028;2022-11-23T04:11:23;9.10;99.90
23435;DHT22;11890;45.380;11.028;2022-11-23T04:13:50;9.10;99.90
23435;DHT22;11890;45.380;11.028;2022-11-23T04:16:18;9.00;99.90
23435;DHT22;11890;45.380;11.028;2022-11-23T04:18:46;9.00;99.90
23435;DHT22;11890;45.380;11.028;2022-11-23T04:21:13;9.00;99.90
23435;DHT22;11890;45.380;11.028;2022-11-23T04:23:42;8.90;99.90
23435;DHT22;11890;45.380;11.028;2022-11-23T04:26:13;8.90;99.90
23435;DHT22;11890;45.380;11.028;2022-11-23T04:28:43;8.90;99.90
23435;DHT22;11890;45.380;11.028;2022-11-23T04:31:11;8.80;99.90
23435;DHT22;11890;45.380;11.028;2022-11-23T04:33:49;8.80;99.90
23435;DHT22;11890;45.380;11.028;2022-11-23T04:36:18;8.80;99.90
23435;DHT22;11890;45.380;11.028;2022-11-23T04:38:46;8.70;99.90
23435;DHT22;11890;45.380;11.028;2022-11-23T04:41:17;8.70;99.90
23435;DHT22;11890;45.380;11.028;2022-11-23T04:43:46;8.70;99.90
23435;DHT22;11890;45.380;11.028;2022-11-23T04:46:14;8.70;99.90
23435;DHT22;11890;45.380;11.028;2022-11-23T04:48:43;8.70;99.90
23435;DHT22;11890;45.380;11.028;2022-11-23T04:51:14;8.70;99.90
23435;DHT22;11890;45.380;11.028;2022-11-23T04:53:42;8.70;99.90
23435;DHT22;11890;45.380;11.028;2022-11-23T04:56:10;8.70;99.90
23435;DHT22;11890;45.380;11.028;2022-11-23T04:58:39;8.70;99.90
23435;DHT22;11890;45.380;11.028;2022-11-23T05:01:07;8.70;99.90
23435;DHT22;11890;45.380;11.028;2022-11-23T05:03:43;8.60;99.90
23435;DHT22;11890;45.380;11.028;2022-11-23T05:06:11;8.60;99.90
23435;DHT22;11890;45.380;11.028;2022-11-23T05:08:41;8.60;99.90
23435;DHT22;11890;45.380;11.028;2022-11-23T05:11:29;8.60;99.90
23435;DHT22;11890;45.380;11.028;2022-11-23T05:13:58;8.60;99.90
23435;DHT22;11890;45.380;11.028;2022-11-23T05:16:28;8.60;99.90
23435;DHT22;11890;45.380;11.028;2022-11-23T05:18:55;8.60;99.90
23435;DHT22;11890;45.380;11.028;2022-11-23T05:21:23;8.60;99.90
23435;DHT22;11890;45.380;11.028;2022-11-23T05:23:52;8.60;99.90
23435;DHT22;11890;45.380;11.028;2022-11-23T05:26:20;8.60;99.90
23435;DHT22;11890;45.380;11.028;2022-11-23T05:28:48;8.60;99.90
23435;DHT22;11890;45.380;11.028;2022-11-23T05:31:15;8.50;99.90
23435;DHT22;11890;45.380;11.028;2022-11-23T05:33:45;8.50;99.90
23435;DHT22;11890;45.380;11.028;2022-11-23T05:36:14;8.50;99.90
23435;DHT22;11890;45.380;11.028;2022-11-23T05:38:42;8.50;99.90
23435;DHT22;11890;45.380;11.028;2022-11-23T05:41:15;8.50;99.90
23435;DHT22;11890;45.380;11.028;2022-11-23T05:43:44;8.50;99.90
23435;DHT22;11890;45.380;11.028;2022-11-23T05:46:16;8.50;99.90
23435;DHT22;11890;45.380;11.028;2022-11-23T05:48:45;8.50;99.90
23435;DHT22;11890;45.380;11.028;2022-11-23T05:51:13;8.50;99.90
23435;DHT22;11890;45.380;11.028;2022-11-23T05:53:44;8.50;99.90
23435;DHT22;11890;45.380;11.028;2022-11-23T05:56:32;8.50;99.90
23435;DHT22;11890;45.380;11.028;2022-11-23T05:59:14;8.60;99.90
23435;DHT22;11890;45.380;11.028;2022-11-23T06:01:45;8.50;99.90
23435;DHT22;11890;45.380;11.028;2022-11-23T06:04:21;8.50;99.90
23435;DHT22;11890;45.380;11.028;2022-11-23T06:06:48;8.50;99.90
23435;DHT22;11890;45.380;11.028;2022-11-23T06:09:15;8.50;99.90
23435;DHT22;11890;45.380;11.028;2022-11-23T06:11:45;8.50;99.90
23435;DHT22;11890;45.380;11.028;2022-11-23T06:14:17;8.50;99.90
23435;DHT22;11890;45.380;11.028;2022-11-23T06:16:46;8.50;99.90
23435;DHT22;11890;45.380;11.028;2022-11-23T06:19:36;8.40;99.90
23435;DHT22;11890;45.380;11.028;2022-11-23T06:22:05;8.40;99.90
23435;DHT22;11890;45.380;11.028;2022-11-23T06:24:38;8.40;99.90
23435;DHT22;11890;45.380;11.028;2022-11-23T06:27:23;8.40;99.90
23435;DHT22;11890;45.380;11.028;2022-11-23T06:29:51;8.40;99.90
23435;DHT22;11890;45.380;11.028;2022-11-23T06:32:20;8.40;99.90
23435;DHT22;11890;45.380;11.028;2022-11-23T06:34:48;8.40;99.90
23435;DHT22;11890;45.380;11.028;2022-11-23T06:37:15;8.40;99.90
23435;DHT22;11890;45.380;11.028;2022-11-23T06:39:48;8.40;99.90
23435;DHT22;11890;45.380;11.028;2022-11-23T06:42:15;8.40;99.90
23435;DHT22;11890;45.380;11.028;2022-11-23T06:45:03;8.40;99.90
23435;DHT22;11890;45.380;11.028;2022-11-23T06:47:31;8.40;99.90
23435;DHT22;11890;45.380;11.028;2022-11-23T06:49:58;8.40;99.90
23435;DHT22;11890;45.380;11.028;2022-11-23T06:52:28;8.30;99.90
23435;DHT22;11890;45.380;11.028;2022-11-23T06:54:55;8.40;99.90
23435;DHT22;11890;45.380;11.028;2022-11-23T06:57:24;8.40;99.90
23435;DHT22;11890;45.380;11.028;2022-11-23T06:59:53;8.40;99.90
23435;DHT22;11890;45.380;11.028;2022-11-23T07:02:26;8.50;99.90
23435;DHT22;11890;45.380;11.028;2022-11-23T07:04:56;8.50;99.90
23435;DHT22;11890;45.380;11.028;2022-11-23T07:07:24;8.50;99.90
23435;DHT22;11890;45.380;11.028;2022-11-23T07:10:02;8.50;99.90
23435;DHT22;11890;45.380;11.028;2022-11-23T07:12:49;8.50;99.90
23435;DHT22;11890;45.380;11.028;2022-11-23T07:15:19;8.60;99.90
23435;DHT22;11890;45.380;11.028;2022-11-23T07:17:47;8.60;99.90
23435;DHT22;11890;45.380;11.028;2022-11-23T07:20:15;8.60;99.90
23435;DHT22;11890;45.380;11.028;2022-11-23T07:22:43;8.70;99.90
23435;DHT22;11890;45.380;11.028;2022-11-23T07:25:11;8.80;99.90
23435;DHT22;11890;45.380;11.028;2022-11-23T07:27:42;8.80;99.90
23435;DHT22;11890;45.380;11.028;2022-11-23T07:30:11;8.90;99.90
23435;DHT22;11890;45.380;11.028;2022-11-23T07:32:38;9.00;99.90
23435;DHT22;11890;45.380;11.028;2022-11-23T07:35:05;9.00;99.90
23435;DHT22;11890;45.380;11.028;2022-11-23T07:37:36;9.00;99.90
23435;DHT22;11890;45.380;11.028;2022-11-23T07:40:04;9.10;99.90
23435;DHT22;11890;45.380;11.028;2022-11-23T07:42:33;9.10;99.90
23435;DHT22;11890;45.380;11.028;2022-11-23T07:45:11;9.20;99.90
23435;DHT22;11890;45.380;11.028;2022-11-23T07:47:43;9.20;99.90
23435;DHT22;11890;45.380;11.028;2022-11-23T07:50:12;9.20;99.90
23435;DHT22;11890;45.380;11.028;2022-11-23T07:52:39;9.30;99.90
23435;DHT22;11890;45.380;11.028;2022-11-23T07:55:08;9.40;99.90
23435;DHT22;11890;45.380;11.028;2022-11-23T07:57:35;9.50;99.90
23435;DHT22;11890;45.380;11.028;2022-11-23T08:00:03;9.60;99.90
23435;DHT22;11890;45.380;11.028;2022-11-23T08:02:38;9.60;99.90
23435;DHT22;11890;45.380;11.028;2022-11-23T08:05:26;9.60;99.90
23435;DHT22;11890;45.380;11.028;2022-11-23T08:07:59;9.70;99.90
23435;DHT22;11890;45.380;11.028;2022-11-23T08:10:28;9.80;99.90
23435;DHT22;11890;45.380;11.028;2022-11-23T08:12:57;9.90;99.90
23435;DHT22;11890;45.380;11.028;2022-11-23T08:15:25;9.90;99.90
23435;DHT22;11890;45.380;11.028;2022-11-23T08:17:58;9.90;99.90
23435;DHT22;11890;45.380;11.028;2022-11-23T08:20:27;10.00;99.90
23435;DHT22;11890;45.380;11.028;2022-11-23T08:22:56;10.10;99.90
23435;DHT22;11890;45.380;11.028;2022-11-23T08:25:24;10.10;99.90
23435;DHT22;11890;45.380;11.028;2022-11-23T08:27:59;10.20;99.90
23435;DHT22;11890;45.380;11.028;2022-11-23T08:30:28;10.30;99.90
23435;DHT22;11890;45.380;11.028;2022-11-23T08:32:56;10.40;99.90
23435;DHT22;11890;45.380;11.028;2022-11-23T08:35:23;10.40;99.90
23435;DHT22;11890;45.380;11.028;2022-11-23T08:37:51;10.50;99.90
23435;DHT22;11890;45.380;11.028;2022-11-23T08:40:18;10.50;99.90
23435;DHT22;11890;45.380;11.028;2022-11-23T08:42:51;10.50;99.90
23435;DHT22;11890;45.380;11.028;2022-11-23T08:45:19;10.60;99.90
23435;DHT22;11890;45.380;11.028;2022-11-23T08:47:46;10.70;99.90
23435;DHT22;11890;45.380;11.028;2022-11-23T08:50:14;10.80;99.90
23435;DHT22;11890;45.380;11.028;2022-11-23T08:52:42;10.80;99.90
23435;DHT22;11890;45.380;11.028;2022-11-23T08:55:09;10.80;99.90
23435;DHT22;11890;45.380;11.028;2022-11-23T08:57:37;10.80;99.90
23435;DHT22;11890;45.380;11.028;2022-11-23T09:00:05;10.80;99.90
23435;DHT22;11890;45.380;11.028;2022-11-23T09:02:32;10.90;99.90
23435;DHT22;11890;45.380;11.028;2022-11-23T09:05:00;11.00;99.90
23435;DHT22;11890;45.380;11.028;2022-11-23T09:07:27;11.10;99.90
23435;DHT22;11890;45.380;11.028;2022-11-23T09:09:55;11.20;99.90
23435;DHT22;11890;45.380;11.028;2022-11-23T09:12:22;11.30;99.90
23435;DHT22;11890;45.380;11.028;2022-11-23T09:14:49;11.30;99.90
23435;DHT22;11890;45.380;11.028;2022-11-23T09:17:17;11.40;99.90
23435;DHT22;11890;45.380;11.028;2022-11-23T09:19:44;11.50;99.90
23435;DHT22;11890;45.380;11.028;2022-11-23T09:22:11;11.60;99.90
23435;DHT22;11890;45.380;11.028;2022-11-23T09:24:39;11.70;99.90
23435;DHT22;11890;45.380;11.028;2022-11-23T09:27:06;11.80;99.90
23435;DHT22;11890;45.380;11.028;2022-11-23T09:29:34;12.00;99.90
23435;DHT22;11890;45.380;11.028;2022-11-23T09:32:02;12.20;99.90
23435;DHT22;11890;45.380;11.028;2022-11-23T09:34:29;12.40;99.90
23435;DHT22;11890;45.380;11.028;2022-11-23T09:36:57;12.50;99.90
23435;DHT22;11890;45.380;11.028;2022-11-23T09:39:25;12.70;99.90
23435;DHT22;11890;45.380;11.028;2022-11-23T09:45:42;13.10;99.90
23435;DHT22;11890;45.380;11.028;2022-11-23T09:50:50;13.30;99.90
23435;DHT22;11890;45.380;11.028;2022-11-23T09:56:25;13.50;99.90
23435;DHT22;11890;45.380;11.028;2022-11-23T09:58:55;13.70;99.90
23435;DHT22;11890;45.380;11.028;2022-11-23T10:01:23;13.80;99.90
23435;DHT22;11890;45.380;11.028;2022-11-23T10:03:54;13.90;99.90
23435;DHT22;11890;45.380;11.028;2022-11-23T10:06:27;14.10;99.90
23435;DHT22;11890;45.380;11.028;2022-11-23T10:11:48;14.50;99.90
23435;DHT22;11890;45.380;11.028;2022-11-23T10:25:22;14.90;99.90
23435;DHT22;11890;45.380;11.028;2022-11-23T10:27:55;14.70;99.90
23435;DHT22;11890;45.380;11.028;2022-11-23T10:30:23;14.60;99.90
23435;DHT22;11890;45.380;11.028;2022-11-23T10:35:29;14.50;99.90
23435;DHT22;11890;45.380;11.028;2022-11-23T10:38:11;14.50;99.90
23435;DHT22;11890;45.380;11.028;2022-11-23T10:49:21;14.80;99.90
23435;DHT22;11890;45.380;11.028;2022-11-23T10:54:29;15.30;99.90
23435;DHT22;11890;45.380;11.028;2022-11-23T10:57:00;15.70;99.90
23435;DHT22;11890;45.380;11.028;2022-11-23T10:59:37;16.00;99.90
23435;DHT22;11890;45.380;11.028;2022-11-23T11:02:17;16.50;99.90
23435;DHT22;11890;45.380;11.028;2022-11-23T11:04:48;17.50;99.90
23435;DHT22;11890;45.380;11.028;2022-11-23T11:07:29;18.30;99.90
23435;DHT22;11890;45.380;11.028;2022-11-23T11:09:59;19.20;99.90
23435;DHT22;11890;45.380;11.028;2022-11-23T11:12:31;20.00;99.90
23435;DHT22;11890;45.380;11.028;2022-11-23T11:17:37;21.10;99.90
23435;DHT22;11890;45.380;11.028;2022-11-23T11:20:23;21.50;98.90
23435;DHT22;11890;45.380;11.028;2022-11-23T11:23:14;21.80;97.80
23435;DHT22;11890;45.380;11.028;2022-11-23T11:25:42;21.60;96.30
23435;DHT22;11890;45.380;11.028;2022-11-23T11:28:35;21.60;96.10
23435;DHT22;11890;45.380;11.028;2022-11-23T11:33:49;21.30;95.30
23435;DHT22;11890;45.380;11.028;2022-11-23T11:36:18;21.20;96.20
23435;DHT22;11890;45.380;11.028;2022-11-23T11:38:51;21.00;93.80
23435;DHT22;11890;45.380;11.028;2022-11-23T11:41:42;20.60;94.80
23435;DHT22;11890;45.380;11.028;2022-11-23T11:44:20;20.70;95.90
23435;DHT22;11890;45.380;11.028;2022-11-23T11:46:56;20.80;95.60
23435;DHT22;11890;45.380;11.028;2022-11-23T11:49:53;20.90;95.10
23435;DHT22;11890;45.380;11.028;2022-11-23T11:52:26;20.90;93.60
23435;DHT22;11890;45.380;11.028;2022-11-23T11:55:06;21.20;94.10
23435;DHT22;11890;45.380;11.028;2022-11-23T11:57:48;21.40;93.00
23435;DHT22;11890;45.380;11.028;2022-11-23T12:00:18;21.40;94.40
23435;DHT22;11890;45.380;11.028;2022-11-23T12:03:18;21.30;92.80
23435;DHT22;11890;45.380;11.028;2022-11-23T12:05:51;21.20;94.80
23435;DHT22;11890;45.380;11.028;2022-11-23T12:08:39;21.20;95.00
23435;DHT22;11890;45.380;11.028;2022-11-23T12:11:10;21.20;94.00
23435;DHT22;11890;45.380;11.028;2022-11-23T12:13:41;21.10;94.10
23435;DHT22;11890;45.380;11.028;2022-11-23T12:32:38;21.60;94.40
23435;DHT22;11890;45.380;11.028;2022-11-23T12:41:00;21.70;93.20
23435;DHT22;11890;45.380;11.028;2022-11-23T12:51:49;22.10;93.20
23435;DHT22;11890;45.380;11.028;2022-11-23T12:54:53;22.10;92.40
23435;DHT22;11890;45.380;11.028;2022-11-23T12:57:31;22.50;92.80
23435;DHT22;11890;45.380;11.028;2022-11-23T13:00:14;22.70;92.00
23435;DHT22;11890;45.380;11.028;2022-11-23T13:02:58;22.90;92.30
23435;DHT22;11890;45.380;11.028;2022-11-23T13:11:50;22.70;91.60
23435;DHT22;11890;45.380;11.028;2022-11-23T13:22:54;18.80;98.50
23435;DHT22;11890;45.380;11.028;2022-11-23T13:25:27;18.90;98.70
23435;DHT22;11890;45.380;11.028;2022-11-23T13:28:43;19.00;99.90
23435;DHT22;11890;45.380;11.028;2022-11-23T13:31:18;19.00;99.90
23435;DHT22;11890;45.380;11.028;2022-11-23T13:33:47;18.80;99.90
23435;DHT22;11890;45.380;11.028;2022-11-23T13:42:11;18.60;99.90
23435;DHT22;11890;45.380;11.028;2022-11-23T13:44:39;18.30;99.90
23435;DHT22;11890;45.380;11.028;2022-11-23T13:47:18;18.50;99.90
23435;DHT22;11890;45.380;11.028;2022-11-23T13:49:51;18.30;99.90
23435;DHT22;11890;45.380;11.028;2022-11-23T13:54:54;17.40;99.90
23435;DHT22;11890;45.380;11.028;2022-11-23T13:57:23;17.20;99.90
23435;DHT22;11890;45.380;11.028;2022-11-23T13:59:50;17.10;99.90
23435;DHT22;11890;45.380;11.028;2022-11-23T14:02:28;16.90;99.90
23435;DHT22;11890;45.380;11.028;2022-11-23T14:05:30;16.50;99.90
23435;DHT22;11890;45.380;11.028;2022-11-23T14:08:16;16.20;99.90
23435;DHT22;11890;45.380;11.028;2022-11-23T14:10:45;16.00;99.90
23435;DHT22;11890;45.380;11.028;2022-11-23T14:13:18;15.80;99.90
23435;DHT22;11890;45.380;11.028;2022-11-23T14:15:53;15.60;99.90
23435;DHT22;11890;45.380;11.028;2022-11-23T14:30:04;15.10;99.90
23435;DHT22;11890;45.380;11.028;2022-11-23T14:33:01;15.00;99.90
23435;DHT22;11890;45.380;11.028;2022-11-23T14:41:22;14.70;99.90
23435;DHT22;11890;45.380;11.028;2022-11-23T14:43:51;14.40;99.90
23435;DHT22;11890;45.380;11.028;2022-11-23T14:46:21;14.30;99.90
23435;DHT22;11890;45.380;11.028;2022-11-23T14:48:55;14.30;99.90
23435;DHT22;11890;45.380;11.028;2022-11-23T14:51:28;14.30;99.90
23435;DHT22;11890;45.380;11.028;2022-11-23T14:53:59;14.10;99.90
23435;DHT22;11890;45.380;11.028;2022-11-23T14:56:34;14.00;99.90
23435;DHT22;11890;45.380;11.028;2022-11-23T14:59:28;14.00;99.90
23435;DHT22;11890;45.380;11.028;2022-11-23T15:02:29;14.00;99.90
23435;DHT22;11890;45.380;11.028;2022-11-23T15:05:13;13.90;99.90
23435;DHT22;11890;45.380;11.028;2022-11-23T15:07:50;13.90;99.90
23435;DHT22;11890;45.380;11.028;2022-11-23T15:12:47;13.80;99.90
23435;DHT22;11890;45.380;11.028;2022-11-23T15:15:25;13.80;99.90
23435;DHT22;11890;45.380;11.028;2022-11-23T15:18:00;13.80;99.90
23435;DHT22;11890;45.380;11.028;2022-11-23T15:20:31;13.80;99.90
23435;DHT22;11890;45.380;11.028;2022-11-23T15:23:00;13.70;99.90
23435;DHT22;11890;45.380;11.028;2022-11-23T15:25:28;13.70;99.90
23435;DHT22;11890;45.380;11.028;2022-11-23T15:27:56;13.60;99.90
23435;DHT22;11890;45.380;11.028;2022-11-23T15:30:28;13.60;99.90
23435;DHT22;11890;45.380;11.028;2022-11-23T15:32:59;13.50;99.90
23435;DHT22;11890;45.380;11.028;2022-11-23T15:35:30;13.50;99.90
23435;DHT22;11890;45.380;11.028;2022-11-23T15:38:00;13.40;99.90
23435;DHT22;11890;45.380;11.028;2022-11-23T15:40:34;13.40;99.90
23435;DHT22;11890;45.380;11.028;2022-11-23T15:43:02;13.30;99.90
23435;DHT22;11890;45.380;11.028;2022-11-23T15:45:33;13.30;99.90
23435;DHT22;11890;45.380;11.028;2022-11-23T15:48:04;13.20;99.90
23435;DHT22;11890;45.380;11.028;2022-11-23T15:50:46;13.20;99.90
23435;DHT22;11890;45.380;11.028;2022-11-23T15:53:13;13.10;99.90
23435;DHT22;11890;45.380;11.028;2022-11-23T15:55:41;13.10;99.90
23435;DHT22;11890;45.380;11.028;2022-11-23T15:58:15;13.00;99.90
23435;DHT22;11890;45.380;11.028;2022-11-23T16:01:22;12.90;99.90
23435;DHT22;11890;45.380;11.028;2022-11-23T16:03:50;12.80;99.90
23435;DHT22;11890;45.380;11.028;2022-11-23T16:09:00;12.70;99.90
23435;DHT22;11890;45.380;11.028;2022-11-23T16:11:32;12.60;99.90
23435;DHT22;11890;45.380;11.028;2022-11-23T16:14:14;12.60;99.90
23435;DHT22;11890;45.380;11.028;2022-11-23T16:16:44;12.50;99.90
23435;DHT22;11890;45.380;11.028;2022-11-23T16:19:26;12.50;99.90
23435;DHT22;11890;45.380;11.028;2022-11-23T16:22:03;12.40;99.90
23435;DHT22;11890;45.380;11.028;2022-11-23T16:24:33;12.30;99.90
23435;DHT22;11890;45.380;11.028;2022-11-23T16:27:11;12.30;99.90
23435;DHT22;11890;45.380;11.028;2022-11-23T16:29:39;12.30;99.90
23435;DHT22;11890;45.380;11.028;2022-11-23T16:32:27;12.30;99.90
23435;DHT22;11890;45.380;11.028;2022-11-23T16:34:57;12.30;99.90
23435;DHT22;11890;45.380;11.028;2022-11-23T16:37:33;12.20;99.90
23435;DHT22;11890;45.380;11.028;2022-11-23T16:40:00;12.20;99.90
23435;DHT22;11890;45.380;11.028;2022-11-23T16:42:28;12.10;99.90
23435;DHT22;11890;45.380;11.028;2022-11-23T16:44:55;12.10;99.90
23435;DHT22;11890;45.380;11.028;2022-11-23T16:47:24;12.10;99.90
23435;DHT22;11890;45.380;11.028;2022-11-23T16:49:53;12.00;99.90
23435;DHT22;11890;45.380;11.028;2022-11-23T16:52:21;12.00;99.90
23435;DHT22;11890;45.380;11.028;2022-11-23T16:54:49;11.90;99.90
23435;DHT22;11890;45.380;11.028;2022-11-23T16:59:46;11.90;99.90
23435;DHT22;11890;45.380;11.028;2022-11-23T17:02:15;11.80;99.90
23435;DHT22;11890;45.380;11.028;2022-11-23T17:04:43;11.80;99.90
23435;DHT22;11890;45.380;11.028;2022-11-23T17:07:11;11.70;99.90
23435;DHT22;11890;45.380;11.028;2022-11-23T17:09:38;11.70;99.90
23435;DHT22;11890;45.380;11.028;2022-11-23T17:12:15;11.70;99.90
23435;DHT22;11890;45.380;11.028;2022-11-23T17:14:47;11.70;99.90
23435;DHT22;11890;45.380;11.028;2022-11-23T17:17:21;11.70;99.90
23435;DHT22;11890;45.380;11.028;2022-11-23T17:19:48;11.60;99.90
23435;DHT22;11890;45.380;11.028;2022-11-23T17:22:17;11.60;99.90
23435;DHT22;11890;45.380;11.028;2022-11-23T17:24:46;11.60;99.90
23435;DHT22;11890;45.380;11.028;2022-11-23T17:27:22;11.60;99.90
23435;DHT22;11890;45.380;11.028;2022-11-23T17:29:56;11.50;99.90
23435;DHT22;11890;45.380;11.028;2022-11-23T17:32:25;11.50;99.90
23435;DHT22;11890;45.380;11.028;2022-11-23T17:34:53;11.50;99.90
23435;DHT22;11890;45.380;11.028;2022-11-23T17:37:22;11.50;99.90
23435;DHT22;11890;45.380;11.028;2022-11-23T17:39:50;11.40;99.90
23435;DHT22;11890;45.380;11.028;2022-11-23T17:42:17;11.40;99.90
23435;DHT22;11890;45.380;11.028;2022-11-23T17:44:44;11.40;99.90
23435;DHT22;11890;45.380;11.028;2022-11-23T17:47:27;11.40;99.90
23435;DHT22;11890;45.380;11.028;2022-11-23T17:49:56;11.40;99.90
23435;DHT22;11890;45.380;11.028;2022-11-23T17:52:25;11.30;99.90
23435;DHT22;11890;45.380;11.028;2022-11-23T17:54:52;11.30;99.90
23435;DHT22;11890;45.380;11.028;2022-11-23T17:57:24;11.30;99.90
23435;DHT22;11890;45.380;11.028;2022-11-23T17:59:53;11.30;99.90